Latest Coastal Weather Observations for Alva Beach

IDQ60701

Issued at 6:25 pm EST Thursday 27 November 2014 (issued every 10 minutes, with the page automatically refreshed every 10 minutes)

About coastal observations | Map of coastal stations | Coastal observations for QLD | Marine services | Other Formats
Station Details ID: 033295 Name: ALVA BEACH Lat: -19.46 Lon: 147.48 Height: 7.5 m
Data from the previous 72 hours. | See also: Recent months at Alva Beach
Date/Time
EST
Temp

°C
Wind Pressure Rain
since 9am
mm
Weather Cloud Vis
km
Sea
Height
m
Swell
Dir
 
Speed
knots
Gust
knots
hPa Trend Height
m
Period
s
Dir
27/06:00pm 26.2 ENE 14 17 1011.2 - 0.0 - - - - - - -
27/05:30pm 26.5 ENE 12 16 1010.8 - 0.0 - - - - - - -
27/05:00pm 27.0 ENE 13 17 1010.6 - 0.0 - - - - - - -
27/04:30pm 27.3 ENE 13 16 1010.6 - 0.0 - - - - - - -
27/04:00pm 27.5 ENE 13 16 1010.5 - 0.0 - - - - - - -
27/03:30pm 27.8 ENE 12 16 1010.6 - 0.0 - - - - - - -
27/03:00pm 27.9 ENE 13 16 1010.9 - 0.0 - - - - - - -
27/02:30pm 27.7 E 11 14 1011.0 - 0.0 - - - - - - -
27/02:00pm 28.5 ENE 12 16 1011.2 - 0.0 - - - - - - -
27/01:30pm 27.7 E 11 14 1011.6 - 0.0 - - - - - - -
27/01:00pm 28.3 E 10 16 1011.8 - 0.0 - - - - - - -
27/12:30pm 28.4 E 10 14 1012.0 - 0.0 - - - - - - -
27/12:00pm 28.0 E 9 15 1012.5 - 0.0 - - - - - - -
27/11:30am 27.9 E 10 13 1012.8 - 0.0 - - - - - - -
27/11:00am 27.9 E 10 15 1013.1 - 0.0 - - - - - - -
27/10:30am 28.3 E 9 13 1013.4 - 0.0 - - - - - - -
27/10:00am 27.5 E 11 14 1013.7 - 0.0 - - - - - - -
27/09:30am 27.8 E 11 17 1013.8 - 0.0 - - - - - - -
27/09:00am 28.7 ESE 7 13 1013.8 - 0.0 - - - - - - -
27/08:30am 28.1 ESE 8 12 1014.0 - 0.0 - - - - - - -
27/08:00am 26.0 SSE 5 8 1013.9 - 0.0 - - - - - - -
27/07:30am 26.1 S 6 10 1013.9 - 0.0 - - - - - - -
27/07:00am 25.0 SSE 4 7 1014.0 - 0.0 - - - - - - -
27/06:30am 25.2 E 7 11 1013.6 - 0.0 - - - - - - -
27/06:00am 24.9 E 7 10 1013.2 - 0.0 - - - - - - -
27/05:30am 24.7 E 9 11 1013.0 - 0.0 - - - - - - -
27/05:00am 24.8 E 10 13 1012.5 - 0.0 - - - - - - -
27/04:30am 24.8 E 11 15 1012.2 - 0.0 - - - - - - -
27/04:00am 24.9 E 12 16 1011.9 - 0.0 - - - - - - -
27/03:30am 24.8 E 11 15 1011.8 - 0.0 - - - - - - -
27/03:00am 24.9 E 11 16 1011.9 - 0.0 - - - - - - -
27/02:30am 24.9 E 10 13 1011.8 - 0.0 - - - - - - -
27/02:00am 24.9 E 12 15 1011.7 - 0.0 - - - - - - -
27/01:30am 25.1 E 14 18 1011.7 - 0.0 - - - - - - -
27/01:00am 25.3 E 12 17 1012.0 - 0.0 - - - - - - -
27/12:30am 25.3 E 13 17 1012.2 - 0.0 - - - - - - -
27/12:00am 25.3 E 12 17 1012.7 - 0.0 - - - - - - -
 
Date/Time
EST
Temp

°C
Wind Pressure Rain
since 9am
mm
Weather Cloud Vis
km
Sea
Height
m
Swell
Dir
 
Speed
knots
Gust
knots
hPa Trend Height
m
Period
s
Dir
26/11:30pm 25.4 E 12 15 1013.0 - 0.0 - - - - - - -
26/11:00pm 25.5 E 12 15 1013.3 - 0.0 - - - - - - -
26/10:30pm 25.4 E 11 14 1013.1 - 0.0 - - - - - - -
26/10:00pm 25.5 E 11 15 1013.1 - 0.0 - - - - - - -
26/09:30pm 25.5 E 13 18 1012.9 - 0.0 - - - - - - -
26/09:00pm 25.7 E 14 18 1012.7 - 0.0 - - - - - - -
26/08:30pm 25.7 E 13 17 1012.8 - 0.0 - - - - - - -
26/08:00pm 25.8 E 13 18 1012.5 - 0.0 - - - - - - -
26/07:30pm 25.8 E 12 18 1012.6 - 0.0 - - - - - - -
26/07:00pm 25.9 E 13 17 1012.3 - 0.0 - - - - - - -
26/06:30pm 26.0 E 15 19 1012.0 - 0.0 - - - - - - -
26/06:00pm 26.3 E 14 18 1011.9 - 0.0 - - - - - - -
26/05:30pm 26.5 E 13 17 1011.8 - 0.0 - - - - - - -
26/05:00pm 26.7 E 15 19 1011.5 - 0.0 - - - - - - -
26/04:30pm 27.0 E 13 18 1011.1 - 0.0 - - - - - - -
26/04:00pm 27.1 E 15 19 1010.8 - 0.0 - - - - - - -
26/03:30pm 27.7 E 15 19 1010.9 - 0.0 - - - - - - -
26/03:00pm 27.5 E 15 20 1011.1 - 0.0 - - - - - - -
26/02:30pm 28.5 E 15 18 1011.1 - 0.0 - - - - - - -
26/02:00pm 28.7 E 15 19 1011.2 - 0.0 - - - - - - -
26/01:30pm 28.3 E 15 20 1011.4 - 0.0 - - - - - - -
26/01:00pm 28.6 ENE 14 17 1011.8 - 0.0 - - - - - - -
26/12:30pm 28.6 ENE 14 17 1012.1 - 0.0 - - - - - - -
26/12:00pm 28.8 E 14 17 1012.4 - 0.0 - - - - - - -
26/11:30am 28.8 ENE 15 19 1012.6 - 0.0 - - - - - - -
26/11:00am 28.8 ENE 15 19 1012.6 - 0.0 - - - - - - -
26/10:30am 28.8 E 13 18 1012.7 - 0.0 - - - - - - -
26/10:00am 28.8 E 13 18 1013.0 - 0.0 - - - - - - -
26/09:30am 28.5 E 13 17 1013.1 - 0.0 - - - - - - -
26/09:00am 28.0 E 11 15 1013.2 - - - - - - - - -
26/08:30am 27.5 E 12 15 1013.0 - - - - - - - - -
26/08:00am 27.1 E 11 14 1012.8 - - - - - - - - -
26/07:30am 26.6 E 10 13 1012.7 - - - - - - - - -
26/07:00am 26.3 E 9 13 1012.4 - - - - - - - - -
26/06:30am 25.8 E 9 13 1012.0 - - - - - - - - -
26/06:00am 25.6 E 9 14 1011.8 - - - - - - - - -
26/05:30am 25.6 E 11 16 1011.2 - - - - - - - - -
26/05:00am 25.5 E 9 13 1011.0 - - - - - - - - -
26/04:30am 25.6 E 10 13 1010.7 - - - - - - - - -
26/04:00am 25.5 E 9 13 1010.6 - - - - - - - - -
26/03:30am 25.5 E 10 15 1010.4 - - - - - - - - -
26/03:00am 25.5 E 12 16 1010.4 - 0.0 - - - - - - -
26/02:30am 25.5 E 11 15 1010.8 - - - - - - - - -
26/02:00am 25.6 E 11 14 1010.9 - - - - - - - - -
26/01:30am 25.7 E 10 13 1011.1 - - - - - - - - -
26/01:00am 25.7 E 11 14 1011.3 - - - - - - - - -
26/12:30am 25.8 E 11 15 1011.6 - - - - - - - - -
26/12:00am 25.9 E 12 16 1012.0 - - - - - - - - -
 
Date/Time
EST
Temp

°C
Wind Pressure Rain
since 9am
mm
Weather Cloud Vis
km
Sea
Height
m
Swell
Dir
 
Speed
knots
Gust
knots
hPa Trend Height
m
Period
s
Dir
25/11:30pm 25.9 E 12 15 1012.3 - - - - - - - - -
25/11:00pm 26.0 E 13 17 1012.4 - - - - - - - - -
25/10:30pm 26.1 E 14 18 1012.5 - - - - - - - - -
25/10:00pm 26.2 E 16 20 1012.3 - - - - - - - - -
25/09:30pm 26.1 E 15 19 1012.2 - - - - - - - - -
25/09:00pm 26.2 E 14 19 1012.0 - 0.0 - - - - - - -
25/08:30pm 26.1 E 12 17 1011.8 - - - - - - - - -
25/08:00pm 26.1 E 11 15 1011.7 - - - - - - - - -
25/07:30pm 26.3 E 11 14 1011.7 - - - - - - - - -
25/07:00pm 26.2 ENE 13 16 1011.3 - - - - - - - - -
25/06:30pm 26.4 ENE 14 17 1011.2 - - - - - - - - -
25/06:00pm 26.5 ENE 15 17 1010.8 - - - - - - - - -
25/05:30pm 26.7 ENE 14 16 1010.6 - - - - - - - - -
25/05:00pm 27.0 ENE 13 17 1010.4 - - - - - - - - -
25/04:30pm 27.4 ENE 14 16 1010.3 - - - - - - - - -
25/04:00pm 27.4 ENE 14 17 1010.2 - - - - - - - - -
25/03:30pm 27.9 NE 15 17 1010.4 - - - - - - - - -
25/03:00pm 27.9 ENE 14 16 1010.7 - - - - - - - - -
25/02:30pm 28.2 ENE 12 15 1011.2 - - - - - - - - -
25/02:00pm 27.8 ENE 12 16 1011.5 - - - - - - - - -
25/01:30pm 28.4 E 12 16 1011.6 - - - - - - - - -
25/01:00pm 28.6 E 10 13 1011.9 - - - - - - - - -
25/12:30pm 28.1 E 10 15 1012.2 - - - - - - - - -
25/12:00pm 28.6 E 11 15 1012.4 - - - - - - - - -
25/11:30am 27.8 E 10 13 1012.7 - 0.2 - - - - - - -
25/11:00am 28.1 E 10 14 1012.9 - 0.2 - - - - - - -
25/10:30am 27.9 E 9 12 1013.2 - 0.2 - - - - - - -
25/10:00am 27.9 E 10 13 1013.3 - 0.2 - - - - - - -
25/09:30am - E 12 16 1013.3 - 0.0 - - - - - - -
25/09:00am 27.7 E 9 13 1013.3 - 0.0 - - - - - - -
25/08:30am 27.6 E 9 12 1013.3 - 0.0 - - - - - - -
25/08:00am 26.6 ENE 8 11 1013.2 - 0.0 - - - - - - -
25/07:30am 26.7 ENE 10 13 1012.9 - 0.0 - - - - - - -
25/07:00am 25.7 ENE 8 12 1012.7 - 0.0 - - - - - - -
25/06:30am 25.3 ENE 9 12 1012.5 - 0.0 - - - - - - -
25/06:00am 25.1 ENE 9 11 1012.3 - 0.0 - - - - - - -
25/05:30am 25.0 ENE 10 13 1012.0 - 0.0 - - - - - - -
25/05:00am 24.7 ENE 10 13 1011.7 - 0.0 - - - - - - -
25/04:30am 25.0 ENE 11 14 1011.5 - 0.0 - - - - - - -
25/04:00am 24.8 ENE 12 15 1011.3 - 0.0 - - - - - - -
25/03:30am 25.0 ENE 11 14 1011.4 - 0.0 - - - - - - -
25/03:00am 25.0 ENE 12 15 1011.3 - 0.0 - - - - - - -
25/02:30am 25.1 ENE 12 14 1011.4 - 0.0 - - - - - - -
25/02:00am 25.0 ENE 10 12 1012.0 - 0.0 - - - - - - -
25/01:30am 25.1 ENE 9 13 1012.3 - 0.0 - - - - - - -
25/01:00am 25.5 ENE 11 13 1012.5 - 0.0 - - - - - - -
25/12:30am 25.5 ENE 11 13 1013.1 - 0.0 - - - - - - -
25/12:00am 25.6 ENE 13 16 1013.4 - 0.0 - - - - - - -
 
Date/Time
EST
Temp

°C
Wind Pressure Rain
since 9am
mm
Weather Cloud Vis
km
Sea
Height
m
Swell
Dir
 
Speed
knots
Gust
knots
hPa Trend Height
m
Period
s
Dir
24/11:30pm 25.5 ENE 11 15 1013.5 - 0.0 - - - - - - -
24/11:00pm 25.5 ENE 12 16 1013.8 - 0.0 - - - - - - -
24/10:30pm 25.6 ENE 13 16 1013.8 - 0.0 - - - - - - -
24/10:00pm 25.6 ENE 13 15 1013.7 - 0.0 - - - - - - -
24/09:30pm 25.7 ENE 14 16 1013.6 - 0.0 - - - - - - -
24/09:00pm 25.8 ENE 14 16 1013.5 - 0.0 - - - - - - -
24/08:30pm 25.9 ENE 15 17 1013.1 - 0.0 - - - - - - -
24/08:00pm 25.8 ENE 16 19 1012.6 - 0.0 - - - - - - -
24/07:30pm 25.9 ENE 16 19 1012.3 - 0.0 - - - - - - -
24/07:00pm 25.9 ENE 15 18 1012.2 - 0.0 - - - - - - -
24/06:30pm 26.3 ENE 15 17 1011.9 - 0.0 - - - - - - -

Other Formats:

Comma delimited format used in spreadsheet applications
http://www.bom.gov.au/fwo/IDQ60701/IDQ60701.95296.axf

JavaScript Object Notation format (JSON) in row-major order
http://www.bom.gov.au/fwo/IDQ60701/IDQ60701.95296.json